Weather at Ronald Reagan Washington National Airport

Public forecast

Using degrees Fahrenheit for public forecast. Weather courtesy of forecast.io.

Current aviation weather report (METAR) for Ronald Reagan Washington National Airport

Retrieved 2021/06/19 02:52 UTC (9 minutes ago):

KDCA 190252Z 18010KT 10SM BKN180 BKN250 26/18 A2989 RMK AO2 SLP120 T02560178 58004

Aviation forecast (TAF) for Ronald Reagan Washington National Airport

Retrieved 2021-06-19 00:22 UTC (3 hours ago):

TAF KDCA 182320Z 1900/2006 18008KT P6SM SCT250 FM191000 22006KT P6SM SCT250 FM191200 25008KT P6SM BKN250